Time;durP1;ratioP1;P1;durP2;ratioP2;P2;SDS_P1;SDS_P2;PMS_P1;PMS_P2;Temp;Humidity;BMP_temperature;BMP_pressure;BME280_temperature;BME280_humidity;BME280_pressure;Samples;Min_cycle;Max_cycle;Signal;HPM_P1;HPM_P2
2023/06/09 00:01:53;;;;;;;9.00;3.42;;;;;;;21.39;41.17;101408.81;4990514;28;109275;-64
2023/06/09 00:04:23;;;;;;;7.53;3.40;;;;;;;21.34;41.15;101408.31;4991076;28;124618;-64
2023/06/09 00:06:54;;;;;;;8.38;3.67;;;;;;;21.30;41.25;101409.56;4989928;28;124000;-64
2023/06/09 00:09:22;;;;;;;5.38;3.38;;;;;;;21.28;41.35;101411.53;4990764;28;109481;-64
2023/06/09 00:11:49;;;;;;;7.70;3.45;;;;;;;21.22;41.22;101406.66;4991867;28;109172;-64
2023/06/09 00:14:17;;;;;;;8.23;3.20;;;;;;;21.18;41.35;101409.56;4991748;28;123970;-65
2023/06/09 00:16:46;;;;;;;6.75;3.42;;;;;;;21.14;41.24;101400.03;4989935;28;124798;-64
2023/06/09 00:19:15;;;;;;;11.45;3.40;;;;;;;21.10;41.44;101409.34;4990321;28;109719;-65
2023/06/09 00:21:49;;;;;;;11.38;3.75;;;;;;;21.06;41.43;101412.41;4992335;28;108654;-65
2023/06/09 00:24:21;;;;;;;6.38;3.00;;;;;;;20.99;41.50;101406.66;4991293;28;124639;-64
2023/06/09 00:26:50;;;;;;;9.80;3.25;;;;;;;20.96;41.46;101396.13;4988664;28;123869;-64
2023/06/09 00:29:21;;;;;;;7.00;3.78;;;;;;;20.92;41.49;101408.13;4990364;28;109842;-64
2023/06/09 00:31:48;;;;;;;6.95;3.20;;;;;;;20.88;41.59;101403.97;4990771;28;108810;-64
2023/06/09 00:34:16;;;;;;;8.20;3.42;;;;;;;20.85;41.61;101398.81;4991350;28;124591;-64
2023/06/09 00:36:43;;;;;;;7.55;3.53;;;;;;;20.82;41.74;101393.69;4989525;28;124744;-66
2023/06/09 00:39:10;;;;;;;9.20;3.50;;;;;;;20.78;41.66;101399.31;4992615;28;109311;-64
2023/06/09 00:41:39;;;;;;;8.23;3.50;;;;;;;20.76;41.86;101395.91;4990793;28;108164;-64
2023/06/09 00:44:06;;;;;;;10.48;3.53;;;;;;;20.73;41.76;101396.13;4990401;28;122979;-64
2023/06/09 00:46:35;;;;;;;7.53;3.33;;;;;;;20.69;41.88;101400.03;4991684;28;125205;-64
2023/06/09 00:49:04;;;;;;;7.32;3.38;;;;;;;20.66;41.92;101405.66;4991847;28;108578;-64
2023/06/09 00:51:33;;;;;;;9.38;3.85;;;;;;;20.61;41.80;101391.72;4990348;28;108939;-64
2023/06/09 00:54:02;;;;;;;8.35;3.28;;;;;;;20.58;41.85;101391.94;4988172;28;123675;-64
2023/06/09 00:56:31;;;;;;;7.28;3.28;;;;;;;20.51;42.09;101386.19;4993054;28;123893;-64
2023/06/09 00:58:59;;;;;;;6.57;3.35;;;;;;;20.49;41.98;101379.19;4995085;28;108171;-64
2023/06/09 01:01:32;;;;;;;7.60;3.50;;;;;;;20.43;42.01;101388.59;4993286;28;109535;-64
2023/06/09 01:04:00;;;;;;;9.73;3.60;;;;;;;20.38;42.08;101386.28;4994313;28;124127;-65
2023/06/09 01:06:43;;;;;;;7.35;3.80;;;;;;;20.35;42.35;101381.13;4992456;28;124135;-64
2023/06/09 01:09:42;;;;;;;9.40;3.30;;;;;;;20.33;42.11;101384.94;4992125;28;109479;-64
2023/06/09 01:12:15;;;;;;;9.23;4.00;;;;;;;20.31;42.24;101385.03;4995583;28;109250;-64
2023/06/09 01:14:53;;;;;;;5.97;3.55;;;;;;;20.27;42.22;101383.56;4994880;28;125181;-64
2023/06/09 01:17:23;;;;;;;10.60;3.88;;;;;;;20.24;42.45;101386.50;4982964;28;122707;-64
2023/06/09 01:20:04;;;;;;;8.45;3.97;;;;;;;20.21;42.35;101384.03;4992616;28;110607;-64
2023/06/09 01:22:44;;;;;;;7.85;3.67;;;;;;;20.17;42.46;101387.94;4993171;28;109939;-64
2023/06/09 01:25:37;;;;;;;7.80;3.33;;;;;;;20.11;42.50;101388.41;4986126;28;123189;-64
2023/06/09 01:28:26;;;;;;;13.32;3.63;;;;;;;20.03;42.48;101381.78;4990054;28;124268;-64
2023/06/09 01:30:56;;;;;;;8.45;3.50;;;;;;;19.99;42.59;101383.00;4994658;28;108743;-64
2023/06/09 01:33:25;;;;;;;6.68;3.67;;;;;;;19.97;42.72;101376.88;4993657;28;107965;-64
2023/06/09 01:35:53;;;;;;;8.60;3.38;;;;;;;19.93;42.81;101374.53;4994126;28;123479;-64
2023/06/09 01:38:22;;;;;;;9.70;4.10;;;;;;;19.89;42.70;101379.31;4994821;28;123479;-66
2023/06/09 01:40:50;;;;;;;10.32;4.28;;;;;;;19.88;42.81;101374.88;4993978;28;108906;-65
2023/06/09 01:43:18;;;;;;;8.25;3.33;;;;;;;19.84;42.94;101376.09;4994287;28;108262;-65
2023/06/09 01:45:45;;;;;;;10.95;3.47;;;;;;;19.80;42.83;101378.16;4992954;28;124722;-66
2023/06/09 01:48:22;;;;;;;8.95;4.15;;;;;;;19.77;43.11;101374.84;4992335;28;123797;-66
2023/06/09 01:51:10;;;;;;;7.13;3.70;;;;;;;19.74;42.99;101369.69;4994363;28;108313;-66
2023/06/09 01:53:49;;;;;;;7.45;3.80;;;;;;;19.68;42.88;101370.97;4981194;28;109337;-64
2023/06/09 01:56:21;;;;;;;9.23;3.75;;;;;;;19.65;43.22;101372.06;4993767;28;123172;-64
2023/06/09 01:58:53;;;;;;;8.40;3.83;;;;;;;19.61;43.27;101375.13;4994148;28;123022;-64
2023/06/09 02:01:22;;;;;;;6.68;3.45;;;;;;;19.60;43.20;101376.94;4994611;28;108415;-64
2023/06/09 02:03:52;;;;;;;9.98;4.07;;;;;;;19.57;43.31;101379.88;4993397;28;107945;-64
2023/06/09 02:06:20;;;;;;;8.40;3.65;;;;;;;19.56;43.37;101372.75;4990408;28;124603;-64
2023/06/09 02:08:48;;;;;;;9.63;4.07;;;;;;;19.53;43.42;101364.06;4993531;28;122864;-64
2023/06/09 02:11:16;;;;;;;8.48;3.78;;;;;;;19.50;43.52;101370.53;4990803;28;110200;-64
2023/06/09 02:13:56;;;;;;;8.07;4.07;;;;;;;19.45;43.40;101360.13;4993427;28;109297;-63
2023/06/09 02:16:24;;;;;;;9.73;3.63;;;;;;;19.41;43.48;101353.25;4991377;28;124153;-63
2023/06/09 02:18:52;;;;;;;13.10;3.90;;;;;;;19.38;43.66;101355.31;4993220;28;123711;-63
2023/06/09 02:21:19;;;;;;;8.55;4.03;;;;;;;19.34;43.92;101361.88;4980755;28;108180;-63
2023/06/09 02:23:47;;;;;;;10.82;4.15;;;;;;;19.32;44.05;101358.47;4992550;28;109253;-63
2023/06/09 02:26:15;;;;;;;9.32;3.92;;;;;;;19.30;43.91;101355.03;4993736;28;123766;-63
2023/06/09 02:28:42;;;;;;;12.27;4.03;;;;;;;19.24;43.97;101351.81;4976987;28;122517;-63
2023/06/09 02:31:09;;;;;;;9.13;4.00;;;;;;;19.21;44.18;101352.06;4990292;28;108610;-64
2023/06/09 02:33:37;;;;;;;7.47;4.00;;;;;;;19.17;44.28;101353.25;4985628;28;108289;-63
2023/06/09 02:36:04;;;;;;;10.40;4.20;;;;;;;19.13;44.19;101351.75;4990997;28;124654;-64
2023/06/09 02:38:32;;;;;;;7.93;3.83;;;;;;;19.12;44.30;101357.22;4992003;28;123955;-64
2023/06/09 02:40:59;;;;;;;9.27;4.20;;;;;;;19.10;44.34;101360.06;4992893;28;108445;-64
2023/06/09 02:43:26;;;;;;;6.80;3.97;;;;;;;19.06;44.41;101363.91;4993173;28;108146;-64
2023/06/09 02:45:54;;;;;;;9.73;4.13;;;;;;;19.03;44.38;101364.16;4993354;28;124192;-64
2023/06/09 02:48:21;;;;;;;11.57;4.18;;;;;;;19.00;44.52;101353.63;4993145;28;124622;-63
2023/06/09 02:50:49;;;;;;;7.20;4.07;;;;;;;18.94;44.58;101354.91;4991713;28;109437;-64
2023/06/09 02:53:18;;;;;;;11.65;4.30;;;;;;;18.91;44.57;101359.66;4993330;28;108256;-64
2023/06/09 02:55:46;;;;;;;7.82;3.85;;;;;;;18.86;44.78;101352.78;4992290;28;123624;-64
2023/06/09 02:58:19;;;;;;;9.23;3.88;;;;;;;18.82;44.85;101353.97;4966026;28;123997;-64
2023/06/09 03:00:50;;;;;;;9.07;4.20;;;;;;;18.80;45.07;101357.72;4992406;28;109410;-64
2023/06/09 03:03:18;;;;;;;11.95;4.05;;;;;;;18.77;45.05;101358.78;4991957;28;109907;-64
2023/06/09 03:05:47;;;;;;;7.20;3.80;;;;;;;18.75;45.17;101355.34;4990376;28;123042;-63
2023/06/09 03:08:15;;;;;;;12.07;4.40;;;;;;;18.74;45.11;101358.13;4992455;28;123521;-63
2023/06/09 03:10:44;;;;;;;9.98;4.07;;;;;;;18.71;45.40;101359.22;4992255;28;108367;-63
2023/06/09 03:13:13;;;;;;;9.75;4.47;;;;;;;18.69;45.34;101371.91;4992074;28;108186;-64
2023/06/09 03:15:47;;;;;;;13.60;4.85;;;;;;;18.66;45.45;101361.38;4988686;28;123908;-64
2023/06/09 03:18:16;;;;;;;11.32;4.13;;;;;;;18.66;45.49;101372.09;4990367;28;123631;-64
2023/06/09 03:20:45;;;;;;;11.43;4.50;;;;;;;18.63;45.51;101366.97;4987860;28;108920;-65
2023/06/09 03:23:13;;;;;;;13.93;5.53;;;;;;;18.57;45.71;101362.03;4984074;28;109105;-65
2023/06/09 03:25:42;;;;;;;12.48;4.68;;;;;;;18.54;45.67;101367.63;4991088;28;123272;-65
2023/06/09 03:28:12;;;;;;;9.25;4.22;;;;;;;18.53;45.86;101365.88;4990094;28;124407;-65
2023/06/09 03:30:41;;;;;;;10.60;3.95;;;;;;;18.53;46.05;101355.16;4990229;28;109081;-65
2023/06/09 03:33:11;;;;;;;11.10;4.30;;;;;;;18.52;45.96;101372.25;4992127;28;108613;-65
2023/06/09 03:35:39;;;;;;;10.18;4.15;;;;;;;18.49;46.11;101382.19;4991768;28;123598;-65
2023/06/09 03:38:06;;;;;;;8.95;4.15;;;;;;;18.47;46.13;101381.44;4992280;28;122963;-66
2023/06/09 03:40:36;;;;;;;13.77;4.60;;;;;;;18.45;46.21;101391.41;4990098;28;108301;-64
2023/06/09 03:43:04;;;;;;;11.20;4.68;;;;;;;18.43;46.41;101382.63;4992661;28;108659;-64
2023/06/09 03:45:31;;;;;;;8.45;4.68;;;;;;;18.41;46.58;101391.75;4991720;28;123529;-64
2023/06/09 03:47:59;;;;;;;10.65;4.03;;;;;;;18.38;46.52;101379.41;4991936;28;121995;-64
2023/06/09 03:50:28;;;;;;;8.52;4.07;;;;;;;18.36;46.52;101386.69;4981508;28;109302;-64
2023/06/09 03:52:56;;;;;;;14.30;4.60;;;;;;;18.34;46.54;101388.63;4993242;28;109978;-64
2023/06/09 03:55:24;;;;;;;10.00;4.38;;;;;;;18.35;46.83;101385.00;4991169;28;122548;-64
2023/06/09 03:57:55;;;;;;;11.07;4.32;;;;;;;18.35;46.83;101390.34;4988098;28;123089;-65
2023/06/09 04:00:23;;;;;;;12.40;4.57;;;;;;;18.35;47.00;101385.00;4975429;28;108425;-65
2023/06/09 04:02:53;;;;;;;10.27;4.30;;;;;;;18.33;46.94;101381.56;4980833;28;108374;-65
2023/06/09 04:05:22;;;;;;;9.52;4.63;;;;;;;18.32;47.14;101387.88;4991311;28;123769;-65
2023/06/09 04:07:52;;;;;;;9.20;4.25;;;;;;;18.32;47.24;101385.19;4992413;28;123872;-65
2023/06/09 04:10:19;;;;;;;12.45;4.25;;;;;;;18.33;47.24;101392.28;4992103;28;108674;-65
2023/06/09 04:12:48;;;;;;;11.07;4.20;;;;;;;18.33;47.20;101386.94;4982679;28;108164;-65
2023/06/09 04:15:16;;;;;;;12.05;4.97;;;;;;;18.34;47.34;101383.25;4990524;28;123738;-65
2023/06/09 04:17:46;;;;;;;10.63;4.40;;;;;;;18.35;47.50;101390.34;4992010;28;122991;-66
2023/06/09 04:20:13;;;;;;;11.30;4.13;;;;;;;18.35;47.46;101385.00;4990168;28;109332;-65
2023/06/09 04:22:48;;;;;;;10.90;4.68;;;;;;;18.37;47.68;101383.06;4979885;28;108370;-66
2023/06/09 04:25:25;;;;;;;11.50;4.53;;;;;;;18.38;47.67;101387.44;4990847;28;122987;-64
2023/06/09 04:27:56;;;;;;;10.23;3.95;;;;;;;18.39;47.69;101381.13;4992655;28;123371;-64
2023/06/09 04:30:26;;;;;;;10.02;4.32;;;;;;;18.39;47.76;101386.50;4979514;28;108391;-65
2023/06/09 04:32:56;;;;;;;12.57;4.60;;;;;;;18.42;47.84;101396.13;4995359;28;109257;-64
2023/06/09 04:35:23;;;;;;;9.68;4.60;;;;;;;18.42;48.01;101397.03;4993862;28;123261;-65
2023/06/09 04:37:51;;;;;;;11.70;4.80;;;;;;;18.45;48.11;101396.78;4994700;28;122998;-65
2023/06/09 04:40:23;;;;;;;11.57;4.60;;;;;;;18.47;48.26;101392.16;4986055;28;109818;-65
2023/06/09 04:42:55;;;;;;;13.00;4.80;;;;;;;18.49;48.29;101398.28;4993365;28;110065;-65
2023/06/09 04:45:27;;;;;;;9.75;4.18;;;;;;;18.53;48.35;101403.44;4994231;28;123004;-66
2023/06/09 04:48:02;;;;;;;10.90;4.57;;;;;;;18.59;48.30;101393.16;4994051;28;126322;-66
2023/06/09 04:50:35;;;;;;;16.17;4.75;;;;;;;18.68;48.44;101407.72;4995599;28;108367;-68
2023/06/09 04:53:07;;;;;;;11.68;4.25;;;;;;;18.78;48.48;101411.50;4991171;28;108885;-66
2023/06/09 04:55:40;;;;;;;13.05;4.72;;;;;;;18.91;48.40;101402.59;4992190;28;126521;-66
2023/06/09 04:58:08;;;;;;;12.32;4.47;;;;;;;19.04;48.40;101398.06;4994670;28;122827;-66
2023/06/09 05:00:36;;;;;;;9.80;4.50;;;;;;;19.15;48.39;101395.47;4994739;28;109814;-65
2023/06/09 05:03:04;;;;;;;12.15;4.75;;;;;;;19.23;48.22;101402.97;4995233;28;108271;-66
2023/06/09 05:05:32;;;;;;;10.75;4.60;;;;;;;19.32;48.17;101412.19;4994002;28;123294;-65
2023/06/09 05:08:00;;;;;;;12.10;5.20;;;;;;;19.37;48.25;101396.59;4994981;28;123938;-65
2023/06/09 05:10:29;;;;;;;13.70;5.95;;;;;;;19.43;48.12;101401.50;4994933;28;108410;-66
2023/06/09 05:12:56;;;;;;;11.48;4.60;;;;;;;19.46;47.97;101403.97;4995234;28;108251;-65
2023/06/09 05:15:24;;;;;;;13.80;4.68;;;;;;;19.50;47.89;101400.09;4986084;28;123882;-65
2023/06/09 05:17:52;;;;;;;11.88;4.82;;;;;;;19.53;48.13;101399.84;4994464;28;122963;-65
2023/06/09 05:20:21;;;;;;;11.23;5.10;;;;;;;19.56;48.04;101399.63;4990095;28;114369;-65
2023/06/09 05:22:50;;;;;;;13.45;5.20;;;;;;;19.62;48.11;101399.16;4992447;28;114094;-65
2023/06/09 05:25:18;;;;;;;12.45;5.30;;;;;;;19.69;47.96;101404.09;4974329;28;123716;-66
2023/06/09 05:27:45;;;;;;;15.10;5.70;;;;;;;19.74;48.09;101407.31;4991214;28;123549;-66
2023/06/09 05:30:15;;;;;;;10.77;5.05;;;;;;;19.79;48.17;101405.16;4986053;28;114948;-65
2023/06/09 05:32:42;;;;;;;11.40;4.80;;;;;;;19.84;47.97;101402.97;4992465;28;115328;-65
2023/06/09 05:35:09;;;;;;;13.95;5.45;;;;;;;19.88;48.12;101399.09;4985974;28;123572;-66
2023/06/09 05:37:51;;;;;;;13.52;5.32;;;;;;;19.93;48.05;101402.28;4991436;28;123103;-65
2023/06/09 05:40:22;;;;;;;12.87;5.30;;;;;;;20.00;48.12;101398.16;4960478;28;113356;-65
2023/06/09 05:42:49;;;;;;;14.50;5.90;;;;;;;20.08;48.20;101399.38;4992905;28;113723;-65
2023/06/09 05:45:17;;;;;;;14.20;5.22;;;;;;;20.14;47.95;101397.09;4991264;28;123630;-65
2023/06/09 05:47:44;;;;;;;12.50;5.95;;;;;;;20.21;47.97;101401.03;4989872;28;124366;-65
2023/06/09 05:50:12;;;;;;;10.30;5.55;;;;;;;20.29;48.09;101408.53;4988582;28;114280;-66
2023/06/09 05:52:39;;;;;;;12.38;5.75;;;;;;;20.36;48.11;101407.06;4989860;28;114326;-67
2023/06/09 05:55:06;;;;;;;12.80;5.70;;;;;;;20.47;48.19;101411.59;4988895;28;124007;-67
2023/06/09 05:57:34;;;;;;;13.50;6.00;;;;;;;20.55;47.94;101402.91;4991974;28;123997;-67
2023/06/09 06:00:09;;;;;;;19.60;6.10;;;;;;;20.65;48.15;101406.66;4989744;28;114865;-66
2023/06/09 06:02:40;;;;;;;14.30;6.20;;;;;;;20.71;48.08;101398.09;4992110;28;113926;-65
2023/06/09 06:05:08;;;;;;;12.18;6.20;;;;;;;20.83;48.20;101408.88;4988891;28;124426;-65
2023/06/09 06:07:37;;;;;;;11.90;6.05;;;;;;;20.92;48.16;101410.81;4989523;28;123782;-65
2023/06/09 06:10:06;;;;;;;13.90;6.10;;;;;;;21.03;48.10;101408.13;4991489;28;113109;-67
2023/06/09 06:12:33;;;;;;;14.30;6.13;;;;;;;21.16;48.23;101403.47;4990274;28;113821;-67
2023/06/09 06:15:01;;;;;;;12.40;6.43;;;;;;;21.32;48.06;101402.22;4984463;28;123029;-67
2023/06/09 06:17:28;;;;;;;12.75;6.20;;;;;;;21.46;47.98;101401.97;4989194;28;124007;-68
2023/06/09 06:20:01;;;;;;;10.10;5.93;;;;;;;21.60;47.77;101406.22;4989677;28;115034;-68
2023/06/09 06:22:36;;;;;;;10.85;6.00;;;;;;;21.72;47.65;101404.38;4990635;28;114038;-68
2023/06/09 06:25:04;;;;;;;12.85;6.70;;;;;;;21.82;47.46;101397.19;4988271;28;123928;-65
2023/06/09 06:27:31;;;;;;;13.45;7.05;;;;;;;21.92;47.39;101410.75;4982765;28;123445;-63
2023/06/09 06:29:58;;;;;;;13.90;7.03;;;;;;;22.03;47.44;101404.47;4990426;28;114661;-65
2023/06/09 06:32:26;;;;;;;12.35;6.53;;;;;;;22.17;47.29;101409.56;4990826;28;113614;-65
2023/06/09 06:34:53;;;;;;;10.90;6.55;;;;;;;22.31;47.29;101406.53;4990637;28;124308;-66
2023/06/09 06:37:22;;;;;;;13.60;7.57;;;;;;;22.45;46.97;101407.19;4990767;28;125712;-65
2023/06/09 06:39:49;;;;;;;10.07;6.13;;;;;;;22.57;46.84;101400.75;4986612;28;113657;-65
2023/06/09 06:42:16;;;;;;;15.40;6.80;;;;;;;22.69;46.78;101399.66;4989009;28;114433;-65
2023/06/09 06:44:58;;;;;;;14.38;6.60;;;;;;;22.82;46.64;101409.41;4980934;28;127341;-66
2023/06/09 06:47:26;;;;;;;12.00;6.97;;;;;;;22.97;46.48;101402.63;4988837;28;122637;-65
2023/06/09 06:49:53;;;;;;;12.93;6.82;;;;;;;23.10;46.45;101408.69;4989044;28;114222;-65
2023/06/09 06:52:20;;;;;;;12.10;7.10;;;;;;;23.25;46.38;101405.59;4988393;28;114123;-66
2023/06/09 06:54:47;;;;;;;12.82;7.35;;;;;;;23.37;46.08;101404.47;4987588;28;124371;-68
2023/06/09 06:57:15;;;;;;;13.75;7.35;;;;;;;23.51;45.96;101395.97;4989263;28;123626;-68
2023/06/09 06:59:42;;;;;;;12.32;7.10;;;;;;;23.68;46.02;101402.56;4990573;28;113511;-68
2023/06/09 07:02:10;;;;;;;11.07;6.88;;;;;;;23.82;45.86;101398.59;4987685;28;114159;-68
2023/06/09 07:04:37;;;;;;;13.50;6.75;;;;;;;24.01;45.75;101391.47;4989897;28;123993;-68
2023/06/09 07:07:05;;;;;;;13.27;8.00;;;;;;;24.18;45.45;101388.03;4986291;28;123953;-65
2023/06/09 07:09:32;;;;;;;15.25;7.55;;;;;;;24.38;45.44;101393.44;4988086;28;116125;-66
2023/06/09 07:11:59;;;;;;;11.23;7.78;;;;;;;24.57;45.02;101393.41;4988853;28;115986;-65
2023/06/09 07:14:29;;;;;;;17.60;7.97;;;;;;;24.65;44.96;101385.38;4989718;28;124404;-67
2023/06/09 07:16:56;;;;;;;11.57;7.75;;;;;;;24.74;44.15;101383.66;4990252;28;124440;-66
2023/06/09 07:19:24;;;;;;;14.82;7.90;;;;;;;24.81;44.45;101394.75;4988992;28;114031;-64
2023/06/09 07:21:51;;;;;;;11.90;7.95;;;;;;;24.90;44.22;101393.81;4988471;28;113870;-64
2023/06/09 07:24:18;;;;;;;16.92;7.75;;;;;;;24.96;43.77;101393.25;4986472;28;123914;-64
2023/06/09 07:26:45;;;;;;;16.27;7.90;;;;;;;25.02;43.68;101387.22;4987828;28;124607;-65
2023/06/09 07:29:16;;;;;;;16.42;7.68;;;;;;;25.12;44.11;101397.16;4976355;28;114201;-65
2023/06/09 07:31:44;;;;;;;13.23;8.05;;;;;;;25.26;43.77;101388.56;4990197;28;114146;-66
2023/06/09 07:34:12;;;;;;;11.77;7.72;;;;;;;25.35;43.40;101393.06;4988475;28;124214;-65
2023/06/09 07:36:41;;;;;;;14.73;7.85;;;;;;;25.45;43.46;101393.84;4988758;28;123792;-63
2023/06/09 07:39:08;;;;;;;15.38;8.80;;;;;;;25.54;43.05;101396.66;4989561;28;114420;-63
2023/06/09 07:41:35;;;;;;;14.48;8.07;;;;;;;25.59;43.06;101391.63;4990487;28;113213;-62
2023/06/09 07:44:03;;;;;;;13.45;8.02;;;;;;;25.65;43.18;101393.72;4988981;28;124140;-62
2023/06/09 07:46:33;;;;;;;13.52;8.50;;;;;;;25.76;43.31;101407.03;4988043;28;124097;-65
2023/06/09 07:49:01;;;;;;;13.07;8.23;;;;;;;25.87;42.97;101394.25;4989081;28;115096;-65
2023/06/09 07:51:29;;;;;;;15.00;8.52;;;;;;;25.94;42.79;101398.09;4988768;28;114534;-65
2023/06/09 07:53:56;;;;;;;14.35;7.75;;;;;;;25.99;42.49;101401.19;4986805;28;123810;-65
2023/06/09 07:56:23;;;;;;;14.68;8.57;;;;;;;26.02;42.52;101393.56;4987736;28;124091;-65
2023/06/09 07:58:51;;;;;;;16.00;8.00;;;;;;;26.06;42.84;101390.56;4987819;28;116107;-65
2023/06/09 08:01:18;;;;;;;14.10;8.38;;;;;;;26.13;42.85;101387.06;4987293;28;115257;-65
2023/06/09 08:03:45;;;;;;;11.05;7.47;;;;;;;26.25;42.55;101394.94;4987346;28;124130;-65
2023/06/09 08:06:14;;;;;;;12.80;8.20;;;;;;;26.35;42.61;101396.56;4984129;28;123991;-67
2023/06/09 08:08:41;;;;;;;16.80;8.95;;;;;;;26.44;42.36;101394.72;4989348;28;114589;-67
2023/06/09 08:11:08;;;;;;;12.05;7.78;;;;;;;26.52;42.18;101402.94;4990345;28;115251;-67
2023/06/09 08:13:35;;;;;;;13.70;8.07;;;;;;;26.61;42.49;101402.00;4987917;28;124889;-68
2023/06/09 08:16:03;;;;;;;12.52;7.72;;;;;;;26.75;42.26;101397.00;4987765;28;123993;-68
2023/06/09 08:18:30;;;;;;;13.73;7.90;;;;;;;26.90;41.96;101398.09;4987878;28;114843;-68
2023/06/09 08:20:58;;;;;;;12.82;8.13;;;;;;;26.99;41.60;101399.84;4989268;28;112871;-67
2023/06/09 08:23:25;;;;;;;15.25;8.70;;;;;;;27.06;41.70;101393.72;4987724;28;124837;-68
2023/06/09 08:25:52;;;;;;;12.18;7.97;;;;;;;27.13;41.58;101400.22;4989068;28;122715;-65
2023/06/09 08:28:20;;;;;;;14.95;8.52;;;;;;;27.20;41.11;101390.41;4989619;28;113223;-66
2023/06/09 08:30:47;;;;;;;12.10;7.75;;;;;;;27.30;41.21;101391.13;4978196;28;114356;-65
2023/06/09 08:33:15;;;;;;;11.35;7.95;;;;;;;27.42;41.18;101382.66;4987429;28;123851;-66
2023/06/09 08:35:42;;;;;;;14.00;8.85;;;;;;;27.53;41.19;101390.50;4986894;28;124738;-64
2023/06/09 08:38:09;;;;;;;11.88;8.07;;;;;;;27.66;40.68;101379.13;4990155;28;114187;-65
2023/06/09 08:40:37;;;;;;;13.45;8.02;;;;;;;27.74;40.85;101382.69;4990729;28;113935;-65
2023/06/09 08:43:07;;;;;;;13.65;8.40;;;;;;;27.84;41.16;101381.69;4985757;28;125374;-66
2023/06/09 08:45:34;;;;;;;15.85;7.90;;;;;;;27.94;40.57;101382.41;4987569;28;123767;-65
2023/06/09 08:48:04;;;;;;;12.80;7.72;;;;;;;28.01;40.40;101382.56;4989012;28;114445;-65
2023/06/09 08:50:32;;;;;;;11.80;7.35;;;;;;;28.08;40.06;101381.72;4987397;28;115062;-65
2023/06/09 08:53:00;;;;;;;11.10;7.72;;;;;;;28.15;39.72;101385.44;4974457;28;124460;-65
2023/06/09 08:55:27;;;;;;;14.18;7.95;;;;;;;28.17;39.50;101387.16;4988708;28;125349;-65
2023/06/09 08:57:54;;;;;;;12.68;6.97;;;;;;;28.21;39.50;101383.06;4988043;28;114604;-65
2023/06/09 09:00:23;;;;;;;11.20;7.57;;;;;;;28.30;39.52;101382.03;4987185;28;114059;-66
2023/06/09 09:02:50;;;;;;;12.10;7.72;;;;;;;28.42;39.50;101369.75;4986585;28;124287;-65
2023/06/09 09:05:18;;;;;;;12.35;8.20;;;;;;;28.52;39.40;101381.34;4986547;28;123802;-65
2023/06/09 09:07:45;;;;;;;10.13;7.47;;;;;;;28.60;39.18;101382.34;4986696;28;114593;-66
2023/06/09 09:10:12;;;;;;;11.20;6.70;;;;;;;28.70;39.38;101370.19;4987180;28;114016;-67
2023/06/09 09:12:48;;;;;;;11.43;7.30;;;;;;;28.88;39.12;101375.44;4985608;28;124215;-67
2023/06/09 09:15:16;;;;;;;17.15;7.90;;;;;;;29.03;38.83;101367.38;4985073;28;124665;-67
2023/06/09 09:17:47;;;;;;;8.95;6.80;;;;;;;29.12;38.35;101365.41;4991939;28;113058;-67
2023/06/09 09:20:15;;;;;;;9.43;6.95;;;;;;;29.21;38.24;101364.38;4992651;28;113945;-66
2023/06/09 09:22:50;;;;;;;13.50;8.00;;;;;;;29.33;38.41;101366.69;4989964;28;124800;-67
2023/06/09 09:25:27;;;;;;;;;;;;;;;29.40;38.70;101367.69;4989562;28;124410;-67
2023/06/09 09:28:03;;;;;;;11.57;6.70;;;;;;;29.54;38.13;101369.66;4990851;28;114625;-66
2023/06/09 09:30:50;;;;;;;11.40;7.32;;;;;;;29.61;37.70;101359.72;4992024;28;112955;-64
2023/06/09 09:33:18;;;;;;;12.90;7.47;;;;;;;29.66;37.43;101360.00;4990525;28;125538;-64
2023/06/09 09:35:49;;;;;;;11.48;7.60;;;;;;;29.74;37.41;101363.72;4980288;28;123803;-65
2023/06/09 09:38:24;;;;;;;11.68;8.00;;;;;;;29.77;37.10;101347.00;4991030;28;115453;-64
2023/06/09 09:40:53;;;;;;;12.95;7.40;;;;;;;29.84;37.33;101350.69;4991660;28;115967;-64
2023/06/09 09:43:24;;;;;;;9.05;7.10;;;;;;;29.92;37.20;101345.16;4981492;28;124069;-64
2023/06/09 09:45:53;;;;;;;10.25;7.72;;;;;;;30.01;36.78;101349.50;4992552;28;123665;-67
2023/06/09 09:48:24;;;;;;;10.48;7.38;;;;;;;30.05;36.88;101345.34;4989932;28;114644;-66
2023/06/09 09:50:58;;;;;;;10.10;6.95;;;;;;;30.12;36.42;101350.06;4990021;28;114332;-66
2023/06/09 09:53:26;;;;;;;9.77;6.43;;;;;;;30.18;36.79;101350.19;4987658;28;124829;-67
2023/06/09 09:55:55;;;;;;;10.20;5.72;;;;;;;30.24;36.02;101348.59;4993182;28;124417;-65
2023/06/09 09:58:34;;;;;;;8.55;6.20;;;;;;;30.34;36.19;101351.09;4990858;28;114091;-66
2023/06/09 10:01:06;;;;;;;9.40;6.47;;;;;;;30.46;35.17;101342.25;4991718;28;113854;-67
2023/06/09 10:03:38;;;;;;;8.43;6.40;;;;;;;30.57;35.31;101342.78;4984394;28;124505;-67
2023/06/09 10:06:11;;;;;;;12.65;6.50;;;;;;;30.64;35.30;101349.19;4989904;28;123877;-67
2023/06/09 10:08:40;;;;;;;10.73;6.28;;;;;;;30.69;34.99;101335.81;4989620;28;113899;-67
2023/06/09 10:11:08;;;;;;;9.23;6.50;;;;;;;30.72;34.87;101335.41;4989682;28;114999;-67
2023/06/09 10:13:37;;;;;;;13.90;7.20;;;;;;;30.73;34.48;101331.66;4990466;28;124422;-67
2023/06/09 10:16:04;;;;;;;8.43;6.32;;;;;;;30.75;34.99;101335.06;4991985;28;123911;-67
2023/06/09 10:18:33;;;;;;;11.18;6.30;;;;;;;30.81;34.62;101328.81;4992464;28;114213;-67
2023/06/09 10:21:03;;;;;;;8.48;5.80;;;;;;;30.87;33.52;101332.66;4990178;28;115968;-65
2023/06/09 10:23:31;;;;;;;10.50;5.90;;;;;;;30.90;33.78;101331.47;4983244;28;124112;-65
2023/06/09 10:25:59;;;;;;;7.50;5.97;;;;;;;30.94;33.84;101327.31;4990266;28;124774;-66
2023/06/09 10:28:27;;;;;;;11.38;5.95;;;;;;;30.99;33.72;101324.88;4988921;28;115729;-66
2023/06/09 10:30:55;;;;;;;7.63;5.50;;;;;;;31.05;33.18;101329.56;4992117;28;115266;-66
2023/06/09 10:33:30;;;;;;;10.75;5.63;;;;;;;31.12;33.65;101335.97;4988895;28;123745;-65
2023/06/09 10:35:59;;;;;;;28.83;8.57;;;;;;;31.20;33.24;101327.63;4976962;28;123904;-65
2023/06/09 10:38:39;;;;;;;7.43;5.45;;;;;;;31.29;32.98;101330.22;4989003;28;113782;-65
2023/06/09 10:41:09;;;;;;;7.82;5.40;;;;;;;31.33;32.68;101320.63;4987341;28;114023;-65
2023/06/09 10:43:55;;;;;;;9.73;4.97;;;;;;;31.37;32.91;101328.22;4989642;28;123806;-65
2023/06/09 10:46:42;;;;;;;11.02;4.65;;;;;;;31.46;32.70;101320.75;4976231;28;123777;-65
2023/06/09 10:49:25;;;;;;;7.00;4.93;;;;;;;31.58;32.13;101319.19;4988908;28;114276;-65
2023/06/09 10:51:53;;;;;;;8.13;5.20;;;;;;;31.68;32.21;101318.84;4981515;28;114746;-65
2023/06/09 10:54:20;;;;;;;6.68;4.93;;;;;;;31.74;31.93;101311.75;4988776;28;123260;-65
2023/06/09 10:56:52;;;;;;;7.20;5.05;;;;;;;31.82;31.84;101308.88;4988228;28;123933;-65
2023/06/09 10:59:25;;;;;;;6.20;4.75;;;;;;;31.87;31.69;101309.09;4989936;28;114534;-64
2023/06/09 11:01:59;;;;;;;9.48;5.20;;;;;;;31.89;31.39;101304.31;4988532;28;114127;-65
2023/06/09 11:04:45;;;;;;;;;;;;;;;31.93;32.56;101305.59;4989691;28;124469;-65
2023/06/09 11:07:20;;;;;;;5.10;4.60;;;;;;;31.98;31.69;101303.06;4985244;28;123709;-65
2023/06/09 11:09:48;;;;;;;8.23;5.03;;;;;;;31.97;31.12;101300.56;4988490;28;114972;-65
2023/06/09 11:12:27;;;;;;;7.05;4.82;;;;;;;31.95;31.26;101298.00;4991346;28;114121;-65
2023/06/09 11:14:57;;;;;;;7.72;4.82;;;;;;;31.99;31.21;101293.81;4990445;28;124459;-66
2023/06/09 11:17:39;;;;;;;7.68;4.93;;;;;;;32.04;31.17;101289.66;4988515;28;124417;-65
2023/06/09 11:20:10;;;;;;;5.82;4.40;;;;;;;32.10;30.53;101288.84;4988013;28;115345;-65
2023/06/09 11:22:41;;;;;;;6.90;4.35;;;;;;;32.11;30.61;101279.59;4989814;28;115538;-67
2023/06/09 11:25:15;;;;;;;6.78;4.40;;;;;;;32.16;30.88;101290.81;4986909;28;124174;-67